SBPK/PET METAR and TAF weather

Enter ICAO airport designator
Station Type Date Time Source
SBPK METAR 2019/06/27 10:15 UTC NOAA

SBPK 271015Z 00000KT CAVOK 01/00 Q1019


Station Type Date Time Source
SBPK Decoded METAR 2019/06/27 10:15 UTC NOAA

Pelotas, Brazil (SBPK) 31-52S 052-21W 13M
Jun 27, 2019 - 06:15 AM EDT / 2019.06.27 1015 UTC
Wind: Calm:0
Visibility: greater than 7 mile(s):0
Temperature: 33 F (1 C)
Dew Point: 32 F (0 C)
Relative Humidity: 93%
Pressure (altimeter): 30.09 in. Hg (1019 hPa)
ob: SBPK 271015Z 00000KT CAVOK 01/00 Q1019
cycle: 10

Station Type Date Time Source
SBPK TAF 2019/06/27 12:54 UTC NOAA

TAF TAF SBPK 270930Z 2712/2812 03007KT CAVOK TX18/2718Z TN10/2808Z PROB40 2808/2811 2000 BR NSC
RMK PER

Example: see airport list